createdAt,value
2018-06-19T00:02:14.626Z,20.28
2018-06-19T00:04:42.210Z,20.26
2018-06-19T00:07:10.518Z,20.23
2018-06-19T00:09:38.118Z,20.21
2018-06-19T00:12:05.694Z,20.20
2018-06-19T00:14:34.194Z,20.15
2018-06-19T00:17:02.395Z,20.14
2018-06-19T00:19:30.650Z,20.10
2018-06-19T00:21:58.264Z,20.04
2018-06-19T00:24:25.886Z,19.97
2018-06-19T00:26:53.755Z,19.96
2018-06-19T00:29:21.365Z,19.93
2018-06-19T00:31:48.932Z,19.92
2018-06-19T00:34:16.813Z,19.91
2018-06-19T00:36:44.398Z,19.90
2018-06-19T00:39:13.260Z,19.90
2018-06-19T00:41:41.780Z,19.88
2018-06-19T00:44:10.162Z,19.88
2018-06-19T00:46:37.754Z,19.84
2018-06-19T00:49:05.314Z,19.81
2018-06-19T00:51:32.934Z,19.75
2018-06-19T00:54:00.786Z,19.73
2018-06-19T00:56:28.417Z,19.72
2018-06-19T00:58:56.040Z,19.71
2018-06-19T01:01:23.650Z,19.70
2018-06-19T01:03:51.534Z,19.69
2018-06-19T01:06:19.121Z,19.67
2018-06-19T01:08:46.702Z,19.66
2018-06-19T01:11:14.970Z,19.64
2018-06-19T01:13:42.838Z,19.61
2018-06-19T01:16:10.414Z,19.59
2018-06-19T01:18:38.671Z,19.57
2018-06-19T01:21:07.066Z,19.56
2018-06-19T01:23:34.690Z,19.56
2018-06-19T01:26:02.257Z,19.54
2018-06-19T01:28:29.867Z,19.51
2018-06-19T01:30:57.725Z,19.49
2018-06-19T01:33:25.310Z,19.46
2018-06-19T01:35:54.301Z,19.42
2018-06-19T01:38:21.875Z,19.41
2018-06-19T01:40:49.845Z,19.40
2018-06-19T01:43:17.446Z,19.39
2018-06-19T01:45:45.024Z,19.37
2018-06-19T01:48:12.656Z,19.35
2018-06-19T01:50:40.271Z,19.31
2018-06-19T01:53:07.851Z,19.31
2018-06-19T01:55:35.705Z,19.29
2018-06-19T01:58:03.305Z,19.25
2018-06-19T02:00:30.899Z,19.22
2018-06-19T02:02:58.494Z,19.19
2018-06-19T02:05:26.382Z,19.16
2018-06-19T02:07:53.986Z,19.13
2018-06-19T02:10:21.583Z,19.10
2018-06-19T02:12:49.146Z,19.08
2018-06-19T02:15:17.014Z,19.06
2018-06-19T02:17:44.658Z,19.05
2018-06-19T02:20:12.251Z,19.03
2018-06-19T02:22:39.819Z,19.01
2018-06-19T02:25:07.889Z,18.98
2018-06-19T02:27:35.462Z,18.96
2018-06-19T02:30:03.051Z,18.93
2018-06-19T02:32:30.882Z,18.93
2018-06-19T02:34:58.529Z,18.92
2018-06-19T02:37:26.106Z,18.91
2018-06-19T02:39:53.679Z,18.91
2018-06-19T02:42:21.527Z,18.91
2018-06-19T02:44:49.099Z,18.93
2018-06-19T02:47:16.691Z,18.93
2018-06-19T02:49:44.535Z,18.93
2018-06-19T02:52:12.264Z,18.94
2018-06-19T02:54:40.498Z,18.93
2018-06-19T02:57:08.542Z,18.94
2018-06-19T02:59:36.651Z,18.94
2018-06-19T03:02:04.426Z,18.94
2018-06-19T03:04:32.074Z,18.95
2018-06-19T03:06:59.952Z,18.95
2018-06-19T03:09:27.540Z,18.97
2018-06-19T03:11:55.110Z,18.98
2018-06-19T03:14:22.970Z,18.99
2018-06-19T03:16:50.546Z,18.99
2018-06-19T03:19:18.209Z,19.02
2018-06-19T03:21:45.786Z,19.03
2018-06-19T03:24:13.634Z,19.03
2018-06-19T03:26:41.211Z,19.04
2018-06-19T03:29:09.738Z,19.03
2018-06-19T03:31:37.563Z,19.04
2018-06-19T03:34:05.396Z,19.03
2018-06-19T03:36:33.630Z,19.03
2018-06-19T03:39:01.554Z,19.01
2018-06-19T03:41:29.155Z,18.99
2018-06-19T03:43:57.209Z,18.99
2018-06-19T03:46:24.758Z,18.97
2018-06-19T03:48:52.358Z,18.97
2018-06-19T03:51:20.870Z,18.98
2018-06-19T03:53:48.766Z,18.99
2018-06-19T03:56:16.325Z,18.98
2018-06-19T03:58:43.931Z,18.99
2018-06-19T04:01:11.506Z,18.98
2018-06-19T04:03:39.545Z,18.98
2018-06-19T04:06:07.901Z,18.98
2018-06-19T04:08:35.488Z,18.98
2018-06-19T04:11:03.089Z,18.97
2018-06-19T04:13:31.005Z,18.97
2018-06-19T04:15:59.091Z,18.96
2018-06-19T04:18:26.673Z,18.97
2018-06-19T04:20:55.154Z,18.97
2018-06-19T04:23:23.345Z,18.97
2018-06-19T04:25:51.739Z,18.94
2018-06-19T04:28:19.593Z,18.95
2018-06-19T04:30:47.154Z,18.96
2018-06-19T04:33:14.750Z,18.92
2018-06-19T04:35:42.702Z,18.92
2018-06-19T04:38:10.261Z,18.92
2018-06-19T04:40:37.830Z,18.93
2018-06-19T04:43:05.679Z,18.94
2018-06-19T04:45:33.234Z,18.94
2018-06-19T04:48:00.795Z,18.96
2018-06-19T04:50:28.346Z,18.96
2018-06-19T04:52:57.908Z,18.95
2018-06-19T04:55:25.918Z,18.95
2018-06-19T04:57:53.514Z,18.96
2018-06-19T05:00:21.090Z,18.96
2018-06-19T05:02:48.938Z,18.95
2018-06-19T05:05:16.489Z,18.94
2018-06-19T05:07:44.066Z,18.95
2018-06-19T05:10:11.919Z,18.97
2018-06-19T05:12:39.494Z,18.96
2018-06-19T05:15:07.078Z,18.95
2018-06-19T05:17:34.946Z,18.92
2018-06-19T05:20:03.119Z,18.91
2018-06-19T05:22:31.585Z,18.91
2018-06-19T05:24:59.419Z,18.91
2018-06-19T05:27:26.982Z,18.94
2018-06-19T05:29:57.545Z,18.94
2018-06-19T05:32:25.450Z,18.95
2018-06-19T05:34:54.679Z,18.95
2018-06-19T05:37:22.266Z,18.95
2018-06-19T05:39:50.150Z,18.95
2018-06-19T05:42:17.738Z,18.98
2018-06-19T05:44:46.206Z,18.99
2018-06-19T05:47:14.369Z,19.01
2018-06-19T05:49:41.967Z,19.02
2018-06-19T05:52:09.558Z,19.03
2018-06-19T05:54:37.459Z,19.03
2018-06-19T05:57:05.714Z,19.04
2018-06-19T05:59:33.322Z,19.04
2018-06-19T06:02:01.219Z,19.04
2018-06-19T06:04:28.819Z,19.05
2018-06-19T06:06:56.419Z,19.07
2018-06-19T06:09:24.279Z,19.08
2018-06-19T06:11:51.855Z,19.08
2018-06-19T06:14:19.466Z,19.09
2018-06-19T06:16:47.659Z,19.09
2018-06-19T06:19:16.276Z,19.09
2018-06-19T06:21:43.846Z,19.10
2018-06-19T06:24:13.311Z,19.10
2018-06-19T06:26:40.874Z,19.11
2018-06-19T06:29:08.677Z,19.11
2018-06-19T06:31:37.384Z,19.12
2018-06-19T06:34:04.974Z,19.13
2018-06-19T06:36:32.594Z,19.12
2018-06-19T06:39:00.498Z,19.14
2018-06-19T06:41:28.084Z,19.12
2018-06-19T06:43:56.837Z,19.13
2018-06-19T06:46:25.625Z,19.13
2018-06-19T06:48:53.331Z,19.14
2018-06-19T06:51:20.995Z,19.16
2018-06-19T06:53:49.742Z,19.15
2018-06-19T06:56:17.338Z,19.15
2018-06-19T06:58:45.978Z,19.15
2018-06-19T07:01:13.946Z,19.14
2018-06-19T07:03:41.589Z,19.14
2018-06-19T07:06:09.198Z,19.13
2018-06-19T07:08:37.118Z,19.11
2018-06-19T07:11:04.735Z,19.10
2018-06-19T07:13:32.352Z,19.08
2018-06-19T07:16:00.348Z,19.07
2018-06-19T07:18:27.946Z,19.07
2018-06-19T07:20:57.220Z,19.08
2018-06-19T07:23:25.083Z,19.10
2018-06-19T07:25:52.740Z,19.11
2018-06-19T07:28:20.374Z,19.12
2018-06-19T07:30:49.112Z,19.12
2018-06-19T07:33:16.731Z,19.14
2018-06-19T07:35:44.369Z,19.16
2018-06-19T07:38:13.125Z,19.17
2018-06-19T07:40:41.479Z,19.20
2018-06-19T07:43:11.908Z,19.22
2018-06-19T07:45:39.842Z,19.24
2018-06-19T07:48:09.050Z,19.26
2018-06-19T07:50:36.652Z,19.28
2018-06-19T07:53:04.579Z,19.29
2018-06-19T07:55:32.961Z,19.30
2018-06-19T07:58:00.564Z,19.32
2018-06-19T08:00:28.427Z,19.34
2018-06-19T08:02:56.559Z,19.34
2018-06-19T08:05:25.858Z,19.37
2018-06-19T08:07:53.714Z,19.40
2018-06-19T08:10:21.305Z,19.42
2018-06-19T08:12:49.618Z,19.44
2018-06-19T08:15:17.787Z,19.43
2018-06-19T08:17:45.446Z,19.44
2018-06-19T08:20:13.386Z,19.45
2018-06-19T08:22:42.465Z,19.42
2018-06-19T08:25:11.363Z,19.40
2018-06-19T08:27:38.962Z,19.39
2018-06-19T08:30:07.797Z,19.39
2018-06-19T08:32:35.398Z,19.39
2018-06-19T08:35:02.993Z,19.39
2018-06-19T08:37:32.232Z,19.40
2018-06-19T08:39:59.848Z,19.40
2018-06-19T08:42:28.349Z,19.41
2018-06-19T08:44:58.230Z,19.42
2018-06-19T08:47:25.801Z,19.43
2018-06-19T08:49:56.750Z,19.47
2018-06-19T08:52:24.449Z,19.46
2018-06-19T08:54:53.209Z,19.47
2018-06-19T08:57:21.099Z,19.48
2018-06-19T08:59:48.739Z,19.48
2018-06-19T09:02:16.330Z,19.49
2018-06-19T09:04:44.173Z,19.49
2018-06-19T09:07:11.750Z,19.48
2018-06-19T09:09:39.325Z,19.49
2018-06-19T09:12:07.257Z,19.49
2018-06-19T09:14:35.100Z,19.53
2018-06-19T09:17:02.712Z,19.50
2018-06-19T09:19:31.086Z,19.51
2018-06-19T09:21:59.315Z,19.53
2018-06-19T09:24:27.618Z,19.55
2018-06-19T09:26:55.494Z,19.56
2018-06-19T09:29:23.342Z,19.60
2018-06-19T09:31:50.919Z,19.59
2018-06-19T09:34:19.630Z,19.60
2018-06-19T09:36:47.317Z,19.61
2018-06-19T09:39:15.076Z,19.61
2018-06-19T09:41:46.120Z,19.63
2018-06-19T09:44:16.657Z,19.65
2018-06-19T09:46:45.650Z,19.67
2018-06-19T09:49:13.546Z,19.70
2018-06-19T09:51:42.855Z,19.71
2018-06-19T09:54:10.449Z,19.74
2018-06-19T09:56:39.349Z,19.76
2018-06-19T09:59:06.970Z,19.80
2018-06-19T10:01:34.854Z,19.82
2018-06-19T10:04:02.745Z,19.84
2018-06-19T10:06:30.399Z,19.84
2018-06-19T10:08:58.700Z,19.83
2018-06-19T10:11:27.094Z,19.83
2018-06-19T10:13:54.778Z,19.84
2018-06-19T10:16:23.008Z,19.82
2018-06-19T10:18:51.044Z,19.80
2018-06-19T10:21:19.415Z,19.80
2018-06-19T10:23:47.181Z,19.81
2018-06-19T10:26:15.105Z,19.84
2018-06-19T10:28:43.527Z,19.86
2018-06-19T10:31:11.950Z,19.86
2018-06-19T10:33:40.450Z,19.87
2018-06-19T10:36:08.043Z,19.87
2018-06-19T10:38:35.666Z,19.87
2018-06-19T10:41:03.601Z,19.88
2018-06-19T10:43:31.265Z,19.88
2018-06-19T10:45:59.926Z,19.87
2018-06-19T10:48:28.506Z,19.86
2018-06-19T10:50:57.390Z,19.83
2018-06-19T10:53:28.954Z,19.85
2018-06-19T10:55:57.150Z,19.87
2018-06-19T10:58:24.726Z,19.90
2018-06-19T11:00:54.199Z,19.93
2018-06-19T11:03:23.018Z,19.95
2018-06-19T11:05:50.667Z,19.98
2018-06-19T11:08:18.288Z,20.01
2018-06-19T11:10:46.432Z,20.05
2018-06-19T11:13:14.730Z,20.09
2018-06-19T11:15:43.519Z,20.16
2018-06-19T11:18:11.393Z,20.22
2018-06-19T11:20:38.986Z,20.28
2018-06-19T11:23:06.577Z,20.34
2018-06-19T11:25:34.475Z,20.40
2018-06-19T11:28:05.207Z,20.43
2018-06-19T11:30:33.784Z,20.46
2018-06-19T11:33:02.742Z,20.48
2018-06-19T11:35:30.522Z,20.51
2018-06-19T11:38:00.261Z,20.51
2018-06-19T11:40:28.286Z,20.54
2018-06-19T11:42:57.066Z,20.54
2018-06-19T11:45:25.338Z,20.55
2018-06-19T11:47:53.507Z,20.57
2018-06-19T11:50:22.254Z,20.59
2018-06-19T11:52:51.410Z,20.62
2018-06-19T11:55:19.546Z,20.65
2018-06-19T11:57:47.664Z,20.69
2018-06-19T12:00:15.298Z,20.72
2018-06-19T12:02:43.191Z,20.74
2018-06-19T12:05:10.823Z,20.78
2018-06-19T12:07:40.184Z,20.83
2018-06-19T12:10:08.226Z,20.88
2018-06-19T12:12:35.858Z,20.93
2018-06-19T12:15:03.534Z,20.95
2018-06-19T12:17:32.618Z,20.96
2018-06-19T12:20:01.166Z,20.97
2018-06-19T12:22:29.627Z,21.00
2018-06-19T12:24:57.502Z,20.99
2018-06-19T12:27:25.191Z,21.00
2018-06-19T12:29:52.911Z,21.03
2018-06-19T12:32:22.501Z,21.06
2018-06-19T12:34:51.191Z,21.09
2018-06-19T12:37:18.816Z,21.12
2018-06-19T12:39:47.850Z,21.18
2018-06-19T12:42:20.245Z,21.22
2018-06-19T12:44:49.671Z,21.27
2018-06-19T12:47:18.567Z,21.31
2018-06-19T12:52:31.639Z,21.38
2018-06-19T12:54:59.251Z,21.40
2018-06-19T12:57:28.050Z,21.43
2018-06-19T12:59:55.991Z,21.45
2018-06-19T13:02:23.579Z,21.45
2018-06-19T13:04:53.520Z,21.48
2018-06-19T13:07:22.152Z,21.50
2018-06-19T13:09:49.735Z,21.52
2018-06-19T13:12:18.362Z,21.56
2018-06-19T13:14:47.116Z,21.57
2018-06-19T13:17:14.762Z,21.57
2018-06-19T13:19:43.462Z,21.58
2018-06-19T13:22:11.336Z,21.61
2018-06-19T13:24:40.374Z,21.62
2018-06-19T13:27:07.972Z,21.64
2018-06-19T13:29:36.367Z,21.71
2018-06-19T13:32:05.273Z,21.78
2018-06-19T13:34:33.855Z,21.83
2018-06-19T13:37:03.191Z,21.86
2018-06-19T13:39:30.759Z,21.90
2018-06-19T13:41:58.360Z,21.93
2018-06-19T13:44:27.091Z,21.95
2018-06-19T13:46:54.675Z,21.96
2018-06-19T13:49:24.152Z,21.97
2018-06-19T13:51:53.738Z,21.96
2018-06-19T13:54:23.230Z,21.94
2018-06-19T13:56:51.408Z,21.93
2018-06-19T13:59:21.561Z,21.92
2018-06-19T14:01:49.228Z,21.92
2018-06-19T14:04:16.827Z,21.92
2018-06-19T14:06:44.706Z,21.93
2018-06-19T14:09:12.347Z,21.93
2018-06-19T14:11:40.506Z,21.94
2018-06-19T14:14:10.370Z,21.94
2018-06-19T14:16:38.816Z,21.94
2018-06-19T14:19:06.439Z,21.94
2018-06-19T14:21:34.334Z,21.93
2018-06-19T14:24:01.919Z,21.95
2018-06-19T14:29:04.457Z,21.98
2018-06-19T14:31:33.468Z,22.00
2018-06-19T14:34:02.254Z,22.00
2018-06-19T14:36:30.886Z,22.06
2018-06-19T14:38:58.553Z,22.14
2018-06-19T14:41:26.406Z,22.24
2018-06-19T14:43:56.931Z,22.38
2018-06-19T14:46:25.744Z,22.48
2018-06-19T14:48:53.550Z,22.57
2018-06-19T14:51:23.557Z,22.62
2018-06-19T14:56:18.618Z,22.66
2018-06-19T14:58:46.590Z,22.65
2018-06-19T15:01:16.430Z,22.63
2018-06-19T15:03:44.639Z,22.60
2018-06-19T15:06:13.414Z,22.57
2018-06-19T15:08:41.982Z,22.56
2018-06-19T15:11:09.566Z,22.54
2018-06-19T15:13:40.210Z,22.55
2018-06-19T15:16:07.784Z,22.55
2018-06-19T15:18:35.414Z,22.55
2018-06-19T15:21:03.278Z,22.53
2018-06-19T15:23:31.563Z,22.51
2018-06-19T15:26:01.454Z,22.50
2018-06-19T15:28:31.309Z,22.48
2018-06-19T15:30:59.762Z,22.46
2018-06-19T15:33:27.347Z,22.47
2018-06-19T15:35:57.061Z,22.47
2018-06-19T15:38:25.410Z,22.45
2018-06-19T15:40:52.994Z,22.44
2018-06-19T15:43:20.922Z,22.43
2018-06-19T15:45:49.097Z,22.42
2018-06-19T15:48:17.844Z,22.39
2018-06-19T15:50:45.693Z,22.38
2018-06-19T15:53:14.399Z,22.37
2018-06-19T15:55:43.213Z,22.38
2018-06-19T15:58:11.901Z,22.38
2018-06-19T16:00:40.015Z,22.38
2018-06-19T16:03:07.617Z,22.38
2018-06-19T16:05:35.503Z,22.37
2018-06-19T16:08:08.138Z,22.36
2018-06-19T16:10:35.710Z,22.36
2018-06-19T16:13:25.347Z,22.35
2018-06-19T16:15:56.258Z,22.32
2018-06-19T16:18:24.819Z,22.32
2018-06-19T16:20:52.417Z,22.31
2018-06-19T16:23:20.218Z,22.30
2018-06-19T16:25:48.515Z,22.30
2018-06-19T16:28:16.254Z,22.32
2018-06-19T16:30:43.919Z,22.34
2018-06-19T16:33:11.895Z,22.35
2018-06-19T16:35:39.495Z,22.32
2018-06-19T16:38:09.552Z,22.30
2018-06-19T16:40:39.542Z,22.29
2018-06-19T16:43:10.770Z,22.30
2018-06-19T16:45:44.554Z,22.29
2018-06-19T16:48:12.197Z,22.28
2018-06-19T16:50:39.889Z,22.27
2018-06-19T16:53:07.870Z,22.26
2018-06-19T16:55:35.465Z,22.28
2018-06-19T16:58:03.732Z,22.27
2018-06-19T17:00:31.659Z,22.26
2018-06-19T17:02:59.460Z,22.26
2018-06-19T17:05:27.763Z,22.25
2018-06-19T17:07:57.449Z,22.25
2018-06-19T17:10:28.625Z,22.24
2018-06-19T17:12:57.742Z,22.24
2018-06-19T17:15:26.889Z,22.23
2018-06-19T17:18:00.540Z,22.22
2018-06-19T17:20:31.778Z,22.23
2018-06-19T17:23:01.392Z,22.21
2018-06-19T17:25:31.066Z,22.20
2018-06-19T17:27:58.675Z,22.21
2018-06-19T17:33:00.552Z,22.18
2018-06-19T17:35:28.446Z,22.17
2018-06-19T17:38:00.031Z,22.16
2018-06-19T17:40:28.446Z,22.17
2018-06-19T17:42:56.949Z,22.16
2018-06-19T17:45:25.698Z,22.15
2018-06-19T17:47:54.198Z,22.15
2018-06-19T17:50:22.399Z,22.13
2018-06-19T17:52:52.085Z,22.12
2018-06-19T17:55:19.675Z,22.12
2018-06-19T17:57:48.222Z,22.11
2018-06-19T18:00:16.162Z,22.10
2018-06-19T18:02:44.396Z,22.10
2018-06-19T18:05:11.980Z,22.09
2018-06-19T18:07:40.562Z,22.08
2018-06-19T18:10:08.154Z,22.06
2018-06-19T18:12:40.073Z,22.06
2018-06-19T18:15:08.072Z,22.05
2018-06-19T18:17:36.292Z,22.05
2018-06-19T18:20:04.780Z,22.03
2018-06-19T18:22:33.084Z,22.02
2018-06-19T18:25:01.421Z,22.01
2018-06-19T18:27:29.638Z,22.02
2018-06-19T18:29:59.195Z,22.00
2018-06-19T18:32:27.355Z,22.02
2018-06-19T18:34:56.240Z,22.00
2018-06-19T18:37:25.900Z,21.98
2018-06-19T18:39:54.011Z,21.98
2018-06-19T18:42:22.209Z,21.96
2018-06-19T18:44:50.662Z,21.94
2018-06-19T18:47:18.287Z,21.94
2018-06-19T18:49:46.653Z,21.95
2018-06-19T18:54:52.641Z,21.94
2018-06-19T18:57:23.419Z,21.94
2018-06-19T18:59:52.261Z,21.94
2018-06-19T19:02:20.593Z,21.94
2018-06-19T19:04:48.748Z,21.92
2018-06-19T19:07:16.602Z,21.93
2018-06-19T19:09:49.679Z,21.92
2018-06-19T19:12:17.527Z,21.91
2018-06-19T19:14:51.337Z,21.89
2018-06-19T19:17:23.982Z,21.89
2018-06-19T19:19:51.654Z,21.89
2018-06-19T19:22:20.206Z,21.87
2018-06-19T19:24:47.810Z,21.87
2018-06-19T19:27:20.538Z,21.86
2018-06-19T19:32:24.466Z,21.84
2018-06-19T19:34:55.262Z,21.83
2018-06-19T19:37:28.078Z,21.83
2018-06-19T19:39:55.674Z,21.82
2018-06-19T19:42:23.454Z,21.80
2018-06-19T19:44:51.334Z,21.78
2018-06-19T19:47:24.026Z,21.79
2018-06-19T19:49:52.302Z,21.78
2018-06-19T19:52:21.288Z,21.76
2018-06-19T19:54:50.493Z,21.75
2018-06-19T19:57:23.955Z,21.75
2018-06-19T19:59:52.897Z,21.73
2018-06-19T20:02:21.747Z,21.72
2018-06-19T20:04:49.757Z,21.71
2018-06-19T20:07:19.471Z,21.70
2018-06-19T20:09:47.623Z,21.70
2018-06-19T20:12:15.243Z,21.67
2018-06-19T20:14:48.157Z,21.65
2018-06-19T20:17:15.767Z,21.64
2018-06-19T20:19:44.562Z,21.63
2018-06-19T20:22:15.028Z,21.61
2018-06-19T20:24:46.434Z,21.60
2018-06-19T20:27:14.282Z,21.58
2018-06-19T20:29:44.551Z,21.57
2018-06-19T20:32:14.039Z,21.57
2018-06-19T20:34:41.883Z,21.57
2018-06-19T20:37:16.469Z,21.56
2018-06-19T20:39:46.421Z,21.55
2018-06-19T20:42:19.118Z,21.54
2018-06-19T20:44:46.723Z,21.52
2018-06-19T20:47:19.459Z,21.52
2018-06-19T20:49:51.005Z,21.51
2018-06-19T20:52:20.379Z,21.50
2018-06-19T20:54:52.323Z,21.49
2018-06-19T20:57:22.447Z,21.48
2018-06-19T20:59:50.108Z,21.46
2018-06-19T21:02:17.731Z,21.45
2018-06-19T21:04:45.630Z,21.43
2018-06-19T21:07:14.051Z,21.42
2018-06-19T21:12:41.626Z,21.38
2018-06-19T21:15:12.186Z,21.37
2018-06-19T21:17:41.625Z,21.36
2018-06-19T21:20:10.210Z,21.34
2018-06-19T21:22:37.850Z,21.32
2018-06-19T21:25:06.222Z,21.30
2018-06-19T21:27:34.079Z,21.29
2018-06-19T21:30:02.820Z,21.27
2018-06-19T21:32:31.793Z,21.25
2018-06-19T21:35:02.131Z,21.24
2018-06-19T21:37:30.270Z,21.24
2018-06-19T21:39:57.870Z,21.23
2018-06-19T21:42:25.902Z,21.21
2018-06-19T21:44:55.694Z,21.20
2018-06-19T21:47:26.469Z,21.20
2018-06-19T21:49:54.311Z,21.18
2018-06-19T21:52:24.366Z,21.17
2018-06-19T21:54:55.754Z,21.15
2018-06-19T21:57:23.655Z,21.14
2018-06-19T21:59:51.245Z,21.11
2018-06-19T22:02:25.887Z,21.10
2018-06-19T22:04:53.784Z,21.09
2018-06-19T22:07:21.590Z,21.08
2018-06-19T22:09:50.910Z,21.06
2018-06-19T22:12:20.090Z,21.04
2018-06-19T22:14:47.663Z,21.05
2018-06-19T22:17:15.389Z,21.04
2018-06-19T22:19:43.231Z,21.03
2018-06-19T22:22:10.799Z,21.02
2018-06-19T22:24:38.390Z,21.01
2018-06-19T22:27:06.249Z,21.00
2018-06-19T22:29:33.877Z,21.00
2018-06-19T22:32:01.643Z,20.99
2018-06-19T22:34:32.254Z,20.98
2018-06-19T22:37:00.938Z,20.97
2018-06-19T22:39:29.107Z,20.97
2018-06-19T22:41:58.478Z,20.96
2018-06-19T22:44:26.859Z,20.97
2018-06-19T22:46:55.498Z,20.96
2018-06-19T22:49:25.423Z,20.96
2018-06-19T22:51:53.023Z,20.95
2018-06-19T22:54:20.595Z,20.96
2018-06-19T22:56:48.486Z,20.96
2018-06-19T22:59:16.110Z,20.94
2018-06-19T23:01:44.226Z,20.93
2018-06-19T23:04:11.834Z,20.93
2018-06-19T23:06:40.368Z,20.93
2018-06-19T23:09:09.582Z,20.93
2018-06-19T23:11:38.129Z,20.93
2018-06-19T23:14:05.977Z,20.93
2018-06-19T23:16:33.566Z,20.93
2018-06-19T23:19:01.137Z,20.92
2018-06-19T23:21:28.719Z,20.92
2018-06-19T23:23:56.559Z,20.91
2018-06-19T23:26:24.421Z,20.89
2018-06-19T23:28:53.814Z,20.90
2018-06-19T23:31:22.470Z,20.89
2018-06-19T23:33:50.055Z,20.87
2018-06-19T23:36:18.492Z,20.88
2018-06-19T23:38:46.074Z,20.87
2018-06-19T23:41:14.702Z,20.88
2018-06-19T23:43:42.270Z,20.87
2018-06-19T23:46:09.859Z,20.87
2018-06-19T23:48:37.450Z,20.86
2018-06-19T23:51:05.310Z,20.85
2018-06-19T23:53:32.878Z,20.85
2018-06-19T23:56:00.451Z,20.84
2018-06-19T23:58:28.304Z,20.83
